Time;durP1;ratioP1;P1;durP2;ratioP2;P2;SDS_P1;SDS_P2;PMS_P1;PMS_P2;Temp;Humidity;BMP_temperature;BMP_pressure;BME280_temperature;BME280_humidity;BME280_pressure;Samples;Min_cycle;Max_cycle;Signal;HPM_P1;HPM_P2
2021/08/04 00:01:51;;;;;;;5.55;5.05;;;15.10;99.90;;;;;;5134662;27;20019;-71
2021/08/04 00:04:17;;;;;;;5.07;4.30;;;15.10;99.90;;;;;;5134515;27;20020;-71
2021/08/04 00:06:43;;;;;;;5.50;4.97;;;15.20;99.90;;;;;;5134681;27;20031;-71
2021/08/04 00:09:09;;;;;;;6.95;4.97;;;15.30;99.90;;;;;;5134453;27;20024;-71
2021/08/04 00:11:35;;;;;;;6.90;4.68;;;15.10;99.90;;;;;;5134394;27;20041;-71
2021/08/04 00:14:01;;;;;;;4.57;4.18;;;15.00;99.90;;;;;;5134535;27;20019;-71
2021/08/04 00:16:27;;;;;;;4.72;4.30;;;15.00;99.90;;;;;;5134235;27;20024;-71
2021/08/04 00:18:53;;;;;;;4.50;4.10;;;15.20;99.90;;;;;;5134675;27;20387;-71
2021/08/04 00:21:19;;;;;;;5.30;4.65;;;15.20;99.90;;;;;;5133925;27;20034;-71
2021/08/04 00:23:45;;;;;;;7.90;3.72;;;15.20;99.90;;;;;;5134295;27;20032;-71
2021/08/04 00:26:11;;;;;;;4.68;4.07;;;14.90;99.90;;;;;;5130044;28;20027;-71
2021/08/04 00:28:37;;;;;;;4.25;3.88;;;15.00;99.90;;;;;;5113711;28;20462;-71
2021/08/04 00:31:03;;;;;;;6.28;4.05;;;14.90;99.90;;;;;;5113405;28;20549;-71
2021/08/04 00:33:29;;;;;;;4.43;3.65;;;14.80;99.90;;;;;;5111888;28;20048;-71
2021/08/04 00:35:54;;;;;;;6.15;3.80;;;15.00;99.90;;;;;;5111964;28;20016;-71
2021/08/04 00:38:20;;;;;;;5.07;4.13;;;14.80;99.90;;;;;;5113876;28;20383;-71
2021/08/04 00:40:47;;;;;;;4.38;4.05;;;15.10;99.90;;;;;;5113232;28;20071;-71
2021/08/04 00:43:13;;;;;;;5.10;4.60;;;14.90;99.90;;;;;;5113481;28;20020;-71
2021/08/04 00:45:39;;;;;;;4.10;3.80;;;15.00;99.90;;;;;;5103904;28;20032;-71
2021/08/04 00:48:05;;;;;;;4.35;3.95;;;14.60;99.90;;;;;;5099705;28;20034;-71
2021/08/04 00:50:32;;;;;;;4.63;3.67;;;15.00;99.90;;;;;;5099314;28;20107;-70
2021/08/04 00:52:58;;;;;;;4.97;4.47;;;15.00;99.90;;;;;;5099460;28;20026;-71
2021/08/04 00:55:26;;;;;;;5.82;4.07;;;15.00;99.90;;;;;;5099520;28;20091;-71
2021/08/04 00:57:52;;;;;;;7.65;4.95;;;14.60;99.90;;;;;;5099723;28;20487;-71
2021/08/04 01:00:18;;;;;;;5.43;4.32;;;14.80;99.90;;;;;;5099511;28;20078;-71
2021/08/04 01:02:48;;;;;;;7.20;4.97;;;14.90;99.90;;;;;;5098289;28;20016;-71
2021/08/04 01:05:35;;;;;;;5.03;4.60;;;14.70;99.90;;;;;;5098963;28;20046;-71
2021/08/04 01:08:16;;;;;;;4.15;3.75;;;14.80;99.90;;;;;;5099350;28;20020;-71
2021/08/04 01:10:51;;;;;;;4.65;3.92;;;14.90;99.90;;;;;;5099412;28;20024;-71
2021/08/04 01:13:38;;;;;;;7.25;4.35;;;14.80;99.90;;;;;;5098963;28;20024;-71
2021/08/04 01:16:10;;;;;;;3.70;3.40;;;14.80;99.90;;;;;;5099288;28;20024;-71
2021/08/04 01:18:54;;;;;;;4.20;3.78;;;15.00;99.90;;;;;;5099153;28;20035;-71
2021/08/04 01:21:28;;;;;;;4.82;3.75;;;14.90;99.90;;;;;;5098815;28;20020;-71
2021/08/04 01:24:05;;;;;;;4.80;3.97;;;14.70;99.90;;;;;;5099243;28;20052;-71
2021/08/04 01:26:31;;;;;;;;;;;14.70;99.90;;;;;;5099288;28;20020;-71
2021/08/04 01:28:59;;;;;;;6.03;3.90;;;14.50;99.90;;;;;;5098948;28;19904;-71
2021/08/04 01:31:28;;;;;;;3.88;3.58;;;14.60;99.90;;;;;;5098522;28;20024;-71
2021/08/04 01:33:55;;;;;;;3.92;3.58;;;14.50;99.90;;;;;;5098705;28;20514;-72
2021/08/04 01:36:22;;;;;;;5.65;4.18;;;14.70;99.90;;;;;;5098540;28;20031;-71
2021/08/04 01:38:48;;;;;;;5.60;4.07;;;14.80;99.90;;;;;;5098660;28;20008;-71
2021/08/04 01:41:17;;;;;;;4.47;4.07;;;14.80;99.90;;;;;;5098564;28;20080;-71
2021/08/04 01:43:44;;;;;;;4.43;3.40;;;14.80;99.90;;;;;;5098610;28;20475;-71
2021/08/04 01:46:11;;;;;;;4.20;3.60;;;14.40;99.90;;;;;;5098718;28;20060;-71
2021/08/04 01:48:39;;;;;;;4.20;3.80;;;14.70;99.90;;;;;;5098484;28;20442;-71
2021/08/04 01:51:08;;;;;;;4.03;3.67;;;14.50;99.90;;;;;;5098217;28;20027;-71
2021/08/04 01:53:35;;;;;;;4.13;3.72;;;14.60;99.90;;;;;;5098192;28;20024;-71
2021/08/04 01:56:01;;;;;;;3.97;3.63;;;14.70;99.90;;;;;;5098038;28;20140;-71
2021/08/04 01:58:28;;;;;;;4.85;3.95;;;14.50;99.90;;;;;;5097783;28;20392;-71
2021/08/04 02:00:53;;;;;;;5.13;3.65;;;14.80;99.90;;;;;;5098498;28;20023;-71
2021/08/04 02:03:19;;;;;;;6.03;3.53;;;14.40;99.90;;;;;;5098106;28;20020;-71
2021/08/04 02:05:46;;;;;;;4.35;3.67;;;14.90;99.90;;;;;;5098020;28;20100;-71
2021/08/04 02:08:21;;;;;;;3.95;3.60;;;14.70;99.90;;;;;;5098051;28;20115;-72
2021/08/04 02:10:47;;;;;;;5.15;3.83;;;14.80;99.90;;;;;;5098200;28;20028;-71
2021/08/04 02:13:25;;;;;;;5.88;3.75;;;14.50;99.90;;;;;;5097820;28;20032;-71
2021/08/04 02:15:59;;;;;;;5.10;3.47;;;14.70;99.90;;;;;;5098202;28;20395;-71
2021/08/04 02:18:30;;;;;;;4.20;3.55;;;14.30;99.90;;;;;;5097856;28;20020;-71
2021/08/04 02:21:00;;;;;;;3.53;3.22;;;14.70;99.90;;;;;;5097797;28;20035;-72
2021/08/04 02:23:31;;;;;;;3.92;3.65;;;14.60;99.90;;;;;;5097540;28;20024;-71
2021/08/04 02:26:06;;;;;;;3.90;3.60;;;14.80;99.90;;;;;;5097839;28;20072;-71
2021/08/04 02:28:36;;;;;;;5.45;3.55;;;14.50;99.90;;;;;;5097893;28;20024;-71
2021/08/04 02:31:04;;;;;;;6.47;3.78;;;14.80;99.90;;;;;;5097530;28;20067;-71
2021/08/04 02:33:30;;;;;;;9.32;3.63;;;14.40;99.90;;;;;;5097342;28;20047;-71
2021/08/04 02:35:57;;;;;;;3.60;3.35;;;14.60;99.90;;;;;;5097314;28;20032;-71
2021/08/04 02:38:23;;;;;;;4.68;3.35;;;14.70;99.90;;;;;;5096391;28;20036;-71
2021/08/04 02:40:50;;;;;;;5.88;3.60;;;14.70;99.90;;;;;;5097380;28;20027;-71
2021/08/04 02:43:18;;;;;;;4.45;3.85;;;14.70;99.90;;;;;;5097517;28;20020;-71
2021/08/04 02:45:44;;;;;;;3.50;3.20;;;14.70;99.90;;;;;;5097390;28;20039;-71
2021/08/04 02:48:12;;;;;;;3.17;2.90;;;15.00;99.90;;;;;;5097516;28;20024;-71
2021/08/04 02:50:46;;;;;;;6.32;3.53;;;14.70;99.90;;;;;;5097058;28;20028;-71
2021/08/04 02:53:16;;;;;;;3.40;3.05;;;14.80;99.90;;;;;;5097124;28;20443;-71
2021/08/04 02:55:43;;;;;;;3.33;3.10;;;14.40;99.90;;;;;;5097086;28;20024;-71
2021/08/04 02:58:12;;;;;;;4.55;4.13;;;14.50;99.90;;;;;;5097254;28;20036;-71
2021/08/04 03:00:38;;;;;;;3.15;2.95;;;14.50;99.90;;;;;;5097097;28;20031;-71
2021/08/04 03:03:04;;;;;;;3.63;3.30;;;14.80;99.90;;;;;;5097232;28;20035;-71
2021/08/04 03:05:30;;;;;;;5.82;3.03;;;14.70;99.90;;;;;;5096793;28;20024;-71
2021/08/04 03:07:56;;;;;;;3.70;3.40;;;14.50;99.90;;;;;;5096911;28;20020;-71
2021/08/04 03:10:22;;;;;;;3.63;3.33;;;14.70;99.90;;;;;;5096970;28;20034;-71
2021/08/04 03:12:48;;;;;;;3.33;3.03;;;14.80;99.90;;;;;;5095793;28;20479;-71
2021/08/04 03:15:14;;;;;;;3.63;3.33;;;14.70;99.90;;;;;;5096902;28;20091;-72
2021/08/04 03:17:40;;;;;;;3.17;2.90;;;14.40;99.90;;;;;;5097017;28;20388;-71
2021/08/04 03:20:06;;;;;;;10.25;3.30;;;14.50;99.90;;;;;;5096711;28;20038;-71
2021/08/04 03:22:32;;;;;;;3.80;3.38;;;14.60;99.90;;;;;;5096821;28;20480;-71
2021/08/04 03:24:58;;;;;;;4.85;2.92;;;14.60;99.90;;;;;;5096718;28;20023;-71
2021/08/04 03:27:24;;;;;;;3.33;3.03;;;14.80;99.90;;;;;;5097002;28;20073;-72
2021/08/04 03:29:50;;;;;;;3.10;2.70;;;14.60;99.90;;;;;;5096766;28;20020;-71
2021/08/04 03:32:16;;;;;;;2.97;2.72;;;14.30;99.90;;;;;;5096679;28;20031;-72
2021/08/04 03:34:42;;;;;;;3.97;2.92;;;14.70;99.90;;;;;;5096254;28;20040;-71
2021/08/04 03:37:08;;;;;;;2.70;2.50;;;14.70;99.90;;;;;;5096852;28;20447;-71
2021/08/04 03:39:34;;;;;;;2.47;2.33;;;14.20;99.90;;;;;;5096625;28;20044;-71
2021/08/04 03:41:59;;;;;;;3.30;3.00;;;14.40;99.90;;;;;;5096760;28;20468;-71
2021/08/04 03:44:25;;;;;;;2.63;2.42;;;14.70;99.90;;;;;;5096741;28;20032;-71
2021/08/04 03:46:51;;;;;;;3.47;2.95;;;15.10;99.90;;;;;;5096924;28;20028;-71
2021/08/04 03:49:17;;;;;;;5.07;2.70;;;14.40;99.90;;;;;;5096487;28;20024;-71
2021/08/04 03:51:43;;;;;;;4.75;3.20;;;14.90;99.90;;;;;;5095229;28;20028;-71
2021/08/04 03:54:09;;;;;;;2.38;2.28;;;14.80;99.90;;;;;;5096270;28;20052;-71
2021/08/04 03:56:35;;;;;;;2.83;2.60;;;15.00;99.90;;;;;;5096696;28;20582;-71
2021/08/04 03:59:01;;;;;;;2.55;2.35;;;14.70;99.90;;;;;;5096586;28;20020;-71
2021/08/04 04:01:27;;;;;;;4.97;3.03;;;14.80;99.90;;;;;;5096591;28;20024;-71
2021/08/04 04:03:53;;;;;;;2.50;2.35;;;14.80;99.90;;;;;;5096353;28;20044;-71
2021/08/04 04:06:19;;;;;;;3.95;2.45;;;14.60;99.90;;;;;;5096493;28;20498;-71
2021/08/04 04:08:45;;;;;;;2.42;2.28;;;15.00;99.90;;;;;;5096213;28;20107;-71
2021/08/04 04:11:11;;;;;;;2.70;2.33;;;14.70;99.90;;;;;;5096551;28;20062;-71
2021/08/04 04:13:37;;;;;;;2.70;2.50;;;14.80;99.90;;;;;;5096250;28;20043;-71
2021/08/04 04:16:04;;;;;;;2.47;2.28;;;14.70;99.90;;;;;;5096572;28;20055;-72
2021/08/04 04:18:29;;;;;;;3.08;2.75;;;15.20;99.90;;;;;;5096121;28;20027;-72
2021/08/04 04:20:55;;;;;;;2.42;2.20;;;15.10;99.90;;;;;;5098505;28;20024;-72
2021/08/04 04:23:21;;;;;;;2.58;2.38;;;14.60;99.90;;;;;;5100216;28;20479;-72
2021/08/04 04:25:47;;;;;;;2.70;2.50;;;14.90;99.90;;;;;;5100224;28;20369;-72
2021/08/04 04:28:13;;;;;;;3.20;2.45;;;14.80;99.90;;;;;;5100009;28;20016;-71
2021/08/04 04:30:39;;;;;;;2.50;2.30;;;14.80;99.90;;;;;;5099988;28;20392;-71
2021/08/04 04:33:04;;;;;;;2.30;2.20;;;15.10;99.90;;;;;;5099484;28;20055;-71
2021/08/04 04:35:30;;;;;;;2.50;2.10;;;15.00;99.90;;;;;;5099889;28;20059;-72
2021/08/04 04:37:56;;;;;;;2.80;2.30;;;14.90;99.90;;;;;;5099777;28;20023;-71
2021/08/04 04:40:22;;;;;;;2.35;2.15;;;15.00;99.90;;;;;;5099999;28;20080;-71
2021/08/04 04:42:48;;;;;;;2.40;2.20;;;14.80;99.90;;;;;;5099790;28;20605;-71
2021/08/04 04:45:14;;;;;;;3.30;1.83;;;14.90;99.90;;;;;;5099946;28;20035;-72
2021/08/04 04:47:40;;;;;;;1.92;1.83;;;14.90;99.90;;;;;;5098232;28;20020;-71
2021/08/04 04:50:06;;;;;;;5.10;2.20;;;14.90;99.90;;;;;;5099625;28;20027;-71
2021/08/04 04:52:38;;;;;;;2.03;1.92;;;14.80;99.90;;;;;;5099499;28;20118;-72
2021/08/04 04:55:04;;;;;;;2.13;2.03;;;15.00;99.90;;;;;;5099574;28;20472;-71
2021/08/04 04:57:29;;;;;;;2.95;2.17;;;14.80;99.90;;;;;;5099418;28;20016;-71
2021/08/04 04:59:55;;;;;;;2.08;1.98;;;15.10;99.90;;;;;;5099710;28;20028;-72
2021/08/04 05:02:21;;;;;;;2.22;2.03;;;14.90;99.90;;;;;;5099470;28;20493;-72
2021/08/04 05:04:47;;;;;;;1.90;1.80;;;15.00;99.90;;;;;;5099185;28;20028;-72
2021/08/04 05:07:13;;;;;;;1.80;1.70;;;15.00;99.90;;;;;;5097965;28;20048;-72
2021/08/04 05:09:39;;;;;;;2.20;1.92;;;15.20;99.90;;;;;;5099225;28;20507;-71
2021/08/04 05:12:05;;;;;;;1.98;1.88;;;15.00;99.90;;;;;;5099135;28;20457;-71
2021/08/04 05:14:30;;;;;;;2.05;1.95;;;14.90;99.90;;;;;;5099214;28;20031;-71
2021/08/04 05:16:56;;;;;;;1.67;1.58;;;14.80;99.90;;;;;;5099073;28;20027;-71
2021/08/04 05:19:22;;;;;;;1.63;1.52;;;15.30;99.90;;;;;;5099100;28;20024;-71
2021/08/04 05:21:48;;;;;;;1.83;1.73;;;14.80;99.90;;;;;;5099043;28;20025;-72
2021/08/04 05:24:14;;;;;;;1.80;1.70;;;14.90;99.90;;;;;;5098971;28;20103;-71
2021/08/04 05:26:39;;;;;;;2.00;1.90;;;15.40;99.90;;;;;;5098960;28;20051;-71
2021/08/04 05:29:05;;;;;;;2.00;1.80;;;15.30;99.90;;;;;;5098884;28;20028;-72
2021/08/04 05:31:31;;;;;;;2.22;2.03;;;14.90;99.90;;;;;;5098552;28;20027;-71
2021/08/04 05:33:57;;;;;;;2.13;2.03;;;15.20;99.90;;;;;;5098438;28;20059;-71
2021/08/04 05:36:23;;;;;;;2.00;1.90;;;15.30;99.90;;;;;;5099146;28;20384;-71
2021/08/04 05:38:49;;;;;;;1.83;1.63;;;15.20;99.90;;;;;;5099202;28;20021;-72
2021/08/04 05:41:14;;;;;;;2.05;1.80;;;15.30;99.90;;;;;;5098675;28;20020;-72
2021/08/04 05:43:40;;;;;;;1.95;1.85;;;15.70;99.90;;;;;;5098679;28;20059;-71
2021/08/04 05:46:06;;;;;;;2.00;1.90;;;15.30;99.90;;;;;;5098513;28;20046;-71
2021/08/04 05:48:32;;;;;;;1.85;1.75;;;15.40;99.90;;;;;;5097212;28;20030;-72
2021/08/04 05:50:58;;;;;;;1.90;1.80;;;15.40;99.90;;;;;;5098167;28;20016;-71
2021/08/04 05:53:23;;;;;;;1.67;1.58;;;15.20;99.90;;;;;;5098357;28;20032;-72
2021/08/04 05:55:49;;;;;;;2.00;1.90;;;15.70;99.90;;;;;;5098461;28;20024;-71
2021/08/04 05:58:17;;;;;;;1.40;1.35;;;15.40;99.90;;;;;;5098359;28;20028;-71
2021/08/04 06:00:43;;;;;;;1.75;1.40;;;15.80;99.90;;;;;;5098199;28;20015;-71
2021/08/04 06:03:08;;;;;;;1.77;1.67;;;15.80;99.90;;;;;;5098214;28;20023;-71
2021/08/04 06:05:34;;;;;;;1.50;1.40;;;15.70;99.90;;;;;;5097937;28;20020;-71
2021/08/04 06:08:00;;;;;;;1.63;1.52;;;15.60;99.90;;;;;;5098274;28;20400;-72
2021/08/04 06:10:26;;;;;;;1.58;1.48;;;15.80;99.90;;;;;;5097893;28;20077;-71
2021/08/04 06:12:52;;;;;;;1.50;1.40;;;15.80;99.90;;;;;;5098119;28;20062;-70
2021/08/04 06:15:17;;;;;;;1.63;1.52;;;15.50;99.90;;;;;;5092366;28;20021;-72
2021/08/04 06:17:43;;;;;;;1.70;1.60;;;15.50;99.90;;;;;;5097650;28;20035;-71
2021/08/04 06:20:10;;;;;;;1.63;1.40;;;15.90;99.90;;;;;;5100283;28;20016;-71
2021/08/04 06:22:36;;;;;;;1.20;1.20;;;15.60;99.90;;;;;;5094137;28;20028;-71
2021/08/04 06:25:02;;;;;;;1.75;1.65;;;15.70;99.90;;;;;;5097594;28;20571;-71
2021/08/04 06:27:28;;;;;;;1.65;1.55;;;15.50;99.90;;;;;;5097787;28;20552;-71
2021/08/04 06:29:54;;;;;;;1.65;1.48;;;15.50;99.90;;;;;;5097231;28;20032;-71
2021/08/04 06:32:20;;;;;;;1.50;1.40;;;15.50;99.90;;;;;;5097798;28;20034;-71
2021/08/04 06:34:46;;;;;;;1.48;1.38;;;15.60;99.90;;;;;;5117715;28;20122;-71
2021/08/04 06:37:12;;;;;;;1.83;1.73;;;15.70;99.90;;;;;;5117552;28;20417;-70
2021/08/04 06:39:38;;;;;;;1.60;1.50;;;15.60;99.90;;;;;;5117927;27;20024;-71
2021/08/04 06:42:04;;;;;;;1.40;1.30;;;15.60;99.90;;;;;;5118120;28;20110;-70
2021/08/04 06:44:30;;;;;;;1.20;1.20;;;15.90;99.90;;;;;;5116982;28;20077;-70
2021/08/04 06:46:59;;;;;;;1.63;1.48;;;15.50;99.90;;;;;;5117775;28;20023;-70
2021/08/04 06:49:25;;;;;;;3.55;1.35;;;15.80;99.90;;;;;;5117691;28;20035;-70
2021/08/04 06:51:51;;;;;;;2.50;1.20;;;15.60;99.90;;;;;;5106855;28;20100;-70
2021/08/04 06:54:17;;;;;;;1.23;1.20;;;15.80;99.90;;;;;;5096857;28;20032;-70
2021/08/04 06:56:43;;;;;;;1.40;1.30;;;16.00;99.90;;;;;;5094862;28;20028;-71
2021/08/04 06:59:09;;;;;;;1.30;1.30;;;16.00;99.90;;;;;;5095906;28;20077;-70
2021/08/04 07:01:35;;;;;;;1.67;1.50;;;15.70;99.90;;;;;;5095397;28;20017;-70
2021/08/04 07:04:01;;;;;;;1.40;1.30;;;16.10;99.90;;;;;;5094448;28;20407;-71
2021/08/04 07:06:26;;;;;;;1.23;1.20;;;16.00;99.90;;;;;;5095792;28;20081;-71
2021/08/04 07:08:52;;;;;;;2.47;1.20;;;16.00;99.90;;;;;;5097213;28;20032;-70
2021/08/04 07:11:22;;;;;;;1.50;1.40;;;15.70;99.90;;;;;;5096959;28;20024;-70
2021/08/04 07:13:51;;;;;;;1.33;1.33;;;16.10;99.90;;;;;;5097075;28;20046;-70
2021/08/04 07:16:17;;;;;;;2.50;1.40;;;15.90;99.90;;;;;;5095653;28;20020;-70
2021/08/04 07:18:44;;;;;;;2.13;1.50;;;15.90;99.90;;;;;;5095484;28;20028;-71
2021/08/04 07:21:12;;;;;;;1.75;1.65;;;15.90;99.90;;;;;;5096812;28;20013;-70
2021/08/04 07:23:39;;;;;;;2.92;1.13;;;16.10;99.90;;;;;;5097047;28;20028;-70
2021/08/04 07:26:05;;;;;;;1.27;1.20;;;16.10;99.90;;;;;;5096676;28;20028;-70
2021/08/04 07:28:31;;;;;;;1.40;1.30;;;15.90;99.90;;;;;;5097039;28;20081;-70
2021/08/04 07:30:56;;;;;;;1.48;1.30;;;16.00;99.90;;;;;;5096813;28;20047;-70
2021/08/04 07:33:22;;;;;;;4.20;1.30;;;16.10;99.90;;;;;;5096497;28;20508;-70
2021/08/04 07:35:48;;;;;;;1.40;1.30;;;16.30;99.90;;;;;;5096472;28;20023;-71
2021/08/04 07:38:14;;;;;;;1.20;1.20;;;16.10;99.90;;;;;;5096820;28;20514;-71
2021/08/04 07:40:42;;;;;;;2.47;1.48;;;16.00;99.90;;;;;;5096669;28;20023;-71
2021/08/04 07:43:08;;;;;;;1.30;1.30;;;16.20;99.90;;;;;;5096776;28;20486;-71
2021/08/04 07:45:34;;;;;;;2.45;1.30;;;16.30;99.90;;;;;;5096636;28;20074;-70
2021/08/04 07:48:00;;;;;;;1.60;1.50;;;16.10;99.90;;;;;;5096868;28;20028;-71
2021/08/04 07:50:26;;;;;;;1.60;1.50;;;16.30;99.90;;;;;;5096277;28;20013;-71
2021/08/04 07:52:51;;;;;;;2.35;1.85;;;16.10;99.90;;;;;;5097010;28;20035;-71
2021/08/04 07:55:18;;;;;;;1.60;1.50;;;16.10;99.90;;;;;;5097770;28;20066;-71
2021/08/04 07:57:44;;;;;;;1.60;1.50;;;16.30;99.90;;;;;;5100831;28;20024;-71
2021/08/04 08:00:11;;;;;;;1.25;1.25;;;16.50;99.90;;;;;;5100550;28;20377;-71
2021/08/04 08:02:36;;;;;;;1.20;1.20;;;16.60;99.90;;;;;;5100655;28;20091;-70
2021/08/04 08:05:03;;;;;;;1.40;1.30;;;16.60;99.90;;;;;;5100432;28;20221;-70
2021/08/04 08:07:28;;;;;;;1.42;1.33;;;17.10;99.90;;;;;;5100588;28;20385;-71
2021/08/04 08:09:54;;;;;;;1.05;1.05;;;16.70;99.90;;;;;;5100300;28;20039;-71
2021/08/04 08:12:20;;;;;;;1.65;1.55;;;17.00;99.90;;;;;;5100596;28;20056;-71
2021/08/04 08:14:46;;;;;;;1.83;1.10;;;17.10;99.90;;;;;;5100297;28;20081;-71
2021/08/04 08:17:12;;;;;;;1.92;1.60;;;17.00;99.90;;;;;;5100473;28;20020;-71
2021/08/04 08:19:39;;;;;;;2.47;1.17;;;17.20;99.90;;;;;;5100208;28;20107;-71
2021/08/04 08:22:05;;;;;;;1.15;1.15;;;17.20;99.90;;;;;;5100340;28;20019;-70
2021/08/04 08:24:31;;;;;;;1.38;1.27;;;;;;;;;;5099997;28;20078;-71
2021/08/04 08:26:57;;;;;;;1.67;1.20;;;17.30;99.90;;;;;;5100343;28;20020;-71
2021/08/04 08:29:23;;;;;;;2.25;1.10;;;17.30;99.90;;;;;;5100115;28;20433;-71
2021/08/04 08:31:49;;;;;;;1.05;1.05;;;17.40;99.90;;;;;;5100198;28;20020;-71
2021/08/04 08:34:15;;;;;;;0.95;0.95;;;17.40;99.90;;;;;;5099586;28;20065;-71
2021/08/04 08:36:41;;;;;;;1.13;0.82;;;17.30;99.90;;;;;;5100067;28;20020;-70
2021/08/04 08:39:09;;;;;;;2.65;0.90;;;17.30;99.90;;;;;;5099779;28;20361;-71
2021/08/04 08:41:35;;;;;;;0.95;0.93;;;17.30;99.90;;;;;;5099933;28;20410;-71
2021/08/04 08:44:02;;;;;;;1.20;1.20;;;17.40;99.90;;;;;;5098465;28;20035;-70
2021/08/04 08:46:31;;;;;;;2.15;1.95;;;17.70;99.90;;;;;;5099839;28;20021;-70
2021/08/04 08:48:58;;;;;;;2.92;0.90;;;17.40;99.90;;;;;;5099496;28;20039;-71
2021/08/04 08:51:25;;;;;;;1.00;1.00;;;17.30;99.90;;;;;;5099617;28;20020;-71
2021/08/04 08:53:52;;;;;;;0.98;0.98;;;17.10;99.90;;;;;;5098199;28;20484;-71
2021/08/04 08:56:19;;;;;;;1.20;1.10;;;17.30;99.90;;;;;;5099873;28;20081;-70
2021/08/04 08:58:46;;;;;;;1.17;1.10;;;17.00;99.90;;;;;;5098202;28;20027;-70
2021/08/04 09:01:12;;;;;;;1.25;1.20;;;17.10;99.90;;;;;;5099467;28;20020;-71
2021/08/04 09:03:38;;;;;;;1.38;1.27;;;17.00;99.90;;;;;;5099080;28;20099;-71
2021/08/04 09:06:05;;;;;;;1.27;1.17;;;17.20;99.90;;;;;;5099061;28;20361;-71
2021/08/04 09:08:33;;;;;;;1.10;1.00;;;17.00;99.90;;;;;;5099194;28;20115;-71
2021/08/04 09:11:14;;;;;;;1.27;1.25;;;16.80;99.90;;;;;;5098040;28;20029;-71
2021/08/04 09:13:40;;;;;;;1.25;1.25;;;16.90;99.90;;;;;;5099191;28;20032;-71
2021/08/04 09:16:11;;;;;;;1.00;1.00;;;17.00;99.90;;;;;;5099250;28;20111;-70
2021/08/04 09:18:44;;;;;;;1.20;1.10;;;16.90;99.90;;;;;;5097712;28;20544;-71
2021/08/04 09:21:11;;;;;;;1.10;1.10;;;16.80;99.90;;;;;;5099163;28;20063;-71
2021/08/04 09:23:56;;;;;;;1.00;1.00;;;16.90;99.90;;;;;;5099148;28;20039;-70
2021/08/04 09:26:25;;;;;;;1.00;1.00;;;16.90;99.90;;;;;;5099063;28;20062;-71
2021/08/04 09:28:54;;;;;;;1.20;1.20;;;16.90;99.90;;;;;;5099232;28;20028;-71
2021/08/04 09:31:22;;;;;;;1.45;1.17;;;17.20;99.90;;;;;;5098903;28;20030;-70
2021/08/04 09:33:48;;;;;;;0.95;0.95;;;17.30;99.90;;;;;;5098593;28;20048;-71
2021/08/04 09:36:27;;;;;;;0.90;0.90;;;17.30;99.90;;;;;;5098750;28;20027;-71
2021/08/04 09:39:04;;;;;;;0.90;0.90;;;17.70;99.90;;;;;;5098891;28;20020;-71
2021/08/04 09:41:30;;;;;;;1.15;1.00;;;17.90;99.90;;;;;;5098809;28;20012;-71
2021/08/04 09:44:04;;;;;;;1.83;0.70;;;;;;;;;;5098682;28;20028;-71
2021/08/04 09:46:30;;;;;;;1.05;0.90;;;17.60;99.90;;;;;;5098701;28;20024;-71
2021/08/04 09:49:13;;;;;;;0.80;0.80;;;18.10;99.90;;;;;;5098274;28;20111;-70
2021/08/04 09:51:39;;;;;;;1.30;1.00;;;18.20;99.90;;;;;;5098489;28;20051;-71
2021/08/04 09:54:09;;;;;;;0.90;0.90;;;18.20;99.90;;;;;;5098227;28;20103;-71
2021/08/04 09:56:52;;;;;;;0.80;0.80;;;18.20;99.90;;;;;;5098625;28;20028;-71
2021/08/04 09:59:20;;;;;;;1.00;1.00;;;18.10;99.90;;;;;;5098720;28;20418;-71
2021/08/04 10:01:47;;;;;;;0.90;0.90;;;17.80;99.90;;;;;;5096897;28;20541;-71
2021/08/04 10:04:14;;;;;;;0.82;0.82;;;17.90;99.90;;;;;;5098134;28;20035;-70
2021/08/04 10:06:44;;;;;;;1.10;1.00;;;17.80;99.90;;;;;;5098109;28;20020;-71
2021/08/04 10:09:13;;;;;;;1.10;1.10;;;17.80;99.90;;;;;;5098211;28;20028;-71
2021/08/04 10:11:51;;;;;;;0.93;0.90;;;17.80;99.90;;;;;;5098006;28;20020;-70
2021/08/04 10:14:20;;;;;;;0.80;0.80;;;17.90;99.90;;;;;;5096950;28;20028;-70
2021/08/04 10:16:47;;;;;;;1.02;0.93;;;18.00;99.90;;;;;;5097966;28;20361;-71
2021/08/04 10:19:14;;;;;;;0.88;0.88;;;18.20;99.90;;;;;;5097139;28;20024;-71
2021/08/04 10:21:43;;;;;;;1.58;0.85;;;18.20;99.90;;;;;;5097791;28;20031;-71
2021/08/04 10:24:11;;;;;;;1.00;0.90;;;18.20;99.90;;;;;;5097907;28;20067;-71
2021/08/04 10:26:37;;;;;;;0.80;0.80;;;18.20;99.90;;;;;;5097651;28;20095;-70
2021/08/04 10:29:05;;;;;;;1.15;0.90;;;18.20;99.90;;;;;;5097866;28;20087;-71
2021/08/04 10:31:31;;;;;;;1.27;0.82;;;;;;;;;;5097707;28;20089;-70
2021/08/04 10:33:58;;;;;;;0.85;0.85;;;18.60;99.90;;;;;;5097360;28;20051;-70
2021/08/04 10:36:33;;;;;;;2.03;1.10;;;18.90;99.90;;;;;;5096434;28;20012;-70
2021/08/04 10:39:08;;;;;;;1.25;1.00;;;19.00;99.90;;;;;;5097649;28;20055;-70
2021/08/04 10:41:35;;;;;;;2.05;0.90;;;19.20;99.90;;;;;;5097715;28;20031;-70
2021/08/04 10:44:06;;;;;;;0.80;0.80;;;19.20;99.90;;;;;;5097422;28;20024;-71
2021/08/04 10:46:32;;;;;;;1.85;0.90;;;19.20;99.90;;;;;;5097425;28;20049;-71
2021/08/04 10:49:04;;;;;;;0.90;0.90;;;19.20;99.90;;;;;;5097238;28;20484;-70
2021/08/04 10:51:31;;;;;;;1.00;1.00;;;19.20;99.90;;;;;;5097415;28;20446;-70
2021/08/04 10:54:03;;;;;;;0.80;0.80;;;19.60;99.90;;;;;;5097090;28;20024;-71
2021/08/04 10:56:32;;;;;;;0.70;0.70;;;19.70;99.90;;;;;;5097447;28;20030;-71
2021/08/04 10:59:31;;;;;;;1.95;0.90;;;19.90;99.90;;;;;;5095764;28;20024;-70
2021/08/04 11:02:03;;;;;;;0.70;0.70;;;19.90;99.90;;;;;;5094099;28;20589;-71
2021/08/04 11:04:28;;;;;;;1.23;0.68;;;20.10;99.90;;;;;;5095716;28;20028;-71
2021/08/04 11:07:13;;;;;;;1.05;0.80;;;20.00;99.90;;;;;;5095810;28;20483;-70
2021/08/04 11:09:40;;;;;;;0.80;0.80;;;20.00;99.90;;;;;;5096992;28;20111;-70
2021/08/04 11:12:11;;;;;;;2.30;0.75;;;20.50;99.90;;;;;;5095834;28;20028;-71
2021/08/04 11:14:40;;;;;;;1.10;0.80;;;20.40;99.90;;;;;;5096920;28;20028;-71
2021/08/04 11:17:09;;;;;;;0.95;0.70;;;20.40;99.90;;;;;;5097060;28;20054;-71
2021/08/04 11:19:56;;;;;;;1.00;0.70;;;20.10;99.90;;;;;;5096800;28;20097;-70
2021/08/04 11:22:23;;;;;;;0.70;0.70;;;20.10;99.90;;;;;;5095900;28;20012;-71
2021/08/04 11:24:58;;;;;;;2.70;0.70;;;19.80;99.90;;;;;;5096888;28;20471;-71
2021/08/04 11:27:26;;;;;;;1.15;0.90;;;19.70;99.90;;;;;;5096871;28;20045;-71
2021/08/04 11:29:54;;;;;;;2.03;0.90;;;20.10;99.90;;;;;;5095470;28;20028;-71
2021/08/04 11:32:21;;;;;;;0.70;0.70;;;;;;;;;;5096720;28;20085;-71
2021/08/04 11:34:48;;;;;;;1.10;0.70;;;21.00;99.90;;;;;;5096188;28;20052;-71
2021/08/04 11:37:14;;;;;;;1.10;0.63;;;20.70;99.90;;;;;;5096940;28;20044;-71
2021/08/04 11:40:00;;;;;;;0.77;0.60;;;20.30;99.90;;;;;;5096599;28;20556;-70
2021/08/04 11:42:27;;;;;;;1.33;0.93;;;19.80;99.90;;;;;;5096646;28;20413;-71
2021/08/04 11:44:53;;;;;;;0.70;0.70;;;19.60;99.90;;;;;;5096929;28;20032;-71
2021/08/04 11:47:20;;;;;;;0.73;0.73;;;19.50;99.90;;;;;;5096750;28;20027;-70
2021/08/04 11:49:52;;;;;;;1.80;0.70;;;19.40;99.90;;;;;;5096670;28;20067;-71
2021/08/04 11:52:26;;;;;;;4.25;0.93;;;19.10;99.90;;;;;;5096657;28;20542;-71
2021/08/04 11:55:02;;;;;;;0.88;0.82;;;19.10;99.90;;;;;;5096791;28;20028;-71
2021/08/04 11:57:29;;;;;;;2.58;0.80;;;19.30;99.90;;;;;;5096530;28;20016;-71
2021/08/04 12:00:05;;;;;;;1.08;0.95;;;19.50;99.90;;;;;;5096680;28;20021;-71
2021/08/04 12:02:32;;;;;;;0.80;0.80;;;19.60;99.90;;;;;;5096693;28;20024;-71
2021/08/04 12:04:59;;;;;;;0.80;0.80;;;19.70;99.90;;;;;;5096098;28;20043;-71
2021/08/04 12:07:33;;;;;;;0.82;0.82;;;19.80;99.90;;;;;;5096793;28;20081;-71
2021/08/04 12:10:01;;;;;;;0.80;0.77;;;19.70;99.90;;;;;;5096401;28;20021;-70
2021/08/04 12:12:31;;;;;;;2.50;0.70;;;19.90;99.90;;;;;;5096472;28;20027;-71
2021/08/04 12:14:58;;;;;;;0.60;0.60;;;19.90;99.90;;;;;;5096242;28;20055;-71
2021/08/04 12:17:36;;;;;;;0.80;0.80;;;19.60;99.90;;;;;;5095210;28;20024;-70
2021/08/04 12:20:19;;;;;;;1.90;1.33;;;19.70;99.90;;;;;;5096151;28;20027;-71
2021/08/04 12:22:55;;;;;;;1.13;1.00;;;19.50;99.90;;;;;;5096250;28;20024;-71
2021/08/04 12:25:22;;;;;;;3.42;0.90;;;19.30;99.90;;;;;;5096561;28;20025;-71
2021/08/04 12:27:50;;;;;;;1.10;1.10;;;19.30;99.90;;;;;;5095079;28;20028;-71
2021/08/04 12:30:40;;;;;;;0.98;0.98;;;19.50;99.90;;;;;;5096383;28;20024;-71
2021/08/04 12:33:13;;;;;;;0.95;0.90;;;19.60;99.90;;;;;;5095808;28;20515;-71
2021/08/04 12:36:02;;;;;;;1.05;1.05;;;19.40;99.90;;;;;;5096119;28;20528;-71
2021/08/04 12:38:39;;;;;;;1.27;1.17;;;20.00;99.90;;;;;;5096180;28;20107;-71
2021/08/04 12:41:07;;;;;;;1.23;1.10;;;19.40;99.90;;;;;;5096980;28;20020;-71
2021/08/04 12:43:36;;;;;;;0.95;0.95;;;19.10;99.90;;;;;;5098620;28;20024;-71
2021/08/04 12:46:03;;;;;;;1.65;1.30;;;19.30;99.90;;;;;;5099716;28;20109;-71
2021/08/04 12:48:37;;;;;;;1.23;1.23;;;19.20;99.90;;;;;;5099647;28;20016;-71
2021/08/04 12:51:03;;;;;;;1.00;1.00;;;19.40;99.90;;;;;;5099878;28;20389;-70
2021/08/04 12:53:35;;;;;;;1.17;1.10;;;19.30;99.90;;;;;;5099421;28;20375;-71